Waimea, HI

02:55 PM HST am 24. August 2016 (GMT -1000)
Waimea, Hi 96796 | | Change Station
aktive Warnung: Flash Flood Watch aktiver Hinweis: Record Report

Höhe 60 ft 21.95 °N, 159.67 °W | Updated 35 seconds ago

Mostly Cloudy
Wolkig
82.9 °F
gefühlte 91 °F
N
5.0
Wind Wechselnd Wind aus Süd
Gusts 7.0 mph

Heute
Max. -- | schwach -- °F
--% Regenrisiko
Gestern
Max. -- | schwach -- °F
Precip. -- inch
Druck 29.95 inch
Sichtweite 10.0 Meilen
Wolken Wolkig 2900 ft
Wolkig 3500 ft
Hitzeindex 91 °F
Taupunkt 76 °F
Feuchtigkeit 81%
Regen 0.00 inch
Schneehöhe Nicht verfügbar..
6:19 AM 7:01 PM
Drittes Viertel, 51% visible
SPECI PHBK 250040Z AUTO 31006KT 10SM BKN029 BKN035 31/24 A2995 RMK AO2 T03060239
Druck 29.95 inch
Sichtweite 10.0 Meilen
Wolken Wolkig 2900 ft
Wolkig 3500 ft
Hitzeindex 91 °F
Taupunkt 76 °F
Feuchtigkeit 81%
Regen 0.00 inch
Schneehöhe Nicht verfügbar..
6:19 AM 7:01 PM
Drittes Viertel, 51% visible
SPECI PHBK 250040Z AUTO 31006KT 10SM BKN029 BKN035 31/24 A2995 RMK AO2 T03060239

10-Day Weather Forecast

Almanac

Astronomie

Aug. 24, 2016 Aufgang Untergang
Genaue Zeit
Bürgerliche Dämmerung
Nautische Dämmerung
Astronomische Dämmerung
Mond
Länge des sichtbaren Lichts
Tageslänge
Tomorrow will be .
, % of the Moon is Illuminated

Heutige Rekorde

State Highs State Lows

Community

WunderPhotos

Upload Photos

1,934,748 Fotos hochgeladen!

WunderBlog® & News

Nearby

Luftqualität

  Luftqualität LQ Index Schadstoff
Not available.

Schneehöhe

Station Depth Höhe

Erdbebenaktivität

Stadt Distance Mag. Time & Date
Minimum magnitude displayed is 2.5.

küstennahe Wassertemperaturen

Ort Temperatur

Stations

Wetterstationen in der Umgebung

Stationsstandort Temp. Windchill Taupunkt Feuchtigkeit Wind Precip. Höhe Aktualisiert Art
                   

Watches & Warnings

Flash Flood Watch
Issued: 04:09 HST Aug. 24, 2016 – National Weather Service

... Flash Flood Watch remains in effect through this afternoon...

The Flash Flood Watch continues for

* all Hawaiian islands.

* Through this afternoon

* deep tropical moisture will continue to produce heavy downpours
and a chance of thunderstorms through late this afternoon. With
streams remaining elevated and the ground already saturated from
recent heavy rains in many areas... there will be an elevated
risk for flash flooding.

Precautionary/preparedness actions...

A Flash Flood Watch means that conditions may develop that lead
to flash flooding. Flash flooding is very dangerous.

You should monitor later forecasts and be prepared to take action
should flash flood warnings be issued.